सभी
South West Rocks Airport YSWK मौसम
There is no TAF data available at YSWK or any nearby airports.
There is no METAR data available at YSWK. Showing METAR data for YKMP (18 mi SW).
Recent KPS METAR history (no data for YSWK)
| Date | Time (AEST) | Flight Rules | Wind Dir. | Speed | Type | Height AGL (ft) | Visibility | Temp (°C) | Temp (°F) | Dew Point (°C) | Dew Point (°F) | Rel. Humid. | Pressure | Density Altitude | Remarks |
|---|---|---|---|---|---|---|---|---|---|---|---|---|---|---|---|
| 04-मई | 10:00 | n/a | 300° | 5 kt | Missing | 21° | 69° | 19° | 66° | 88% | 1019 mb | 603 ft | |||
| 04-मई | 09:00 | n/a | 310° | 5 kt | Missing | 19° | 66° | 17° | 62° | 88% | 1020 mb | 333 ft | |||
| 04-मई | 08:00 | n/a | 310° | 4 kt | Missing | 18° | 64° | 17° | 62° | 94% | 1019 mb | 243 ft | |||
| 04-मई | 07:00 | n/a | Calm | Missing | 17° | 62° | 17° | 62° | 100% | 1019 mb | 123 ft | ||||
| 04-मई | 06:00 | n/a | Calm | Missing | 17° | 62° | 17° | 62° | 100% | 1018 mb | 152 ft | ||||
| 04-मई | 05:00 | n/a | 10° | 3 kt | Missing | 17° | 62° | 16° | 60° | 94% | 1018 mb | 152 ft | |||
| 04-मई | 04:00 | n/a | Calm | Missing | 16° | 60° | 16° | 60° | 100% | 1018 mb | 32 ft | ||||
| 04-मई | 03:00 | n/a | 310° | 6 kt | Missing | 17° | 62° | 17° | 62° | 100% | 1018 mb | 152 ft | |||
| 04-मई | 02:00 | n/a | 300° | 5 kt | Missing | 17° | 62° | 17° | 62° | 100% | 1019 mb | 123 ft | |||
| 04-मई | 01:00 | n/a | Calm | Missing | 17° | 62° | 17° | 62° | 100% | 1019 mb | 123 ft | ||||
| 04-मई | 00:00 | n/a | Calm | Missing | 17° | 62° | 17° | 62° | 100% | 1020 mb | 93 ft | ||||
| 03-मई | 23:00 | n/a | 280° | 5 kt | Missing | 18° | 64° | 17° | 62° | 94% | 1020 mb | 213 ft | |||
| 03-मई | 22:00 | n/a | Calm | Missing | 17° | 62° | 17° | 62° | 100% | 1020 mb | 93 ft | ||||
| 03-मई | 21:00 | n/a | 100° | 1 kt | Missing | 17° | 62° | 17° | 62° | 100% | 1020 mb | 93 ft | |||
| 03-मई | 20:00 | n/a | Calm | Missing | 18° | 64° | 18° | 64° | 100% | 1020 mb | 213 ft | ||||
| 03-मई | 19:00 | n/a | 160° | 3 kt | Missing | 19° | 66° | 18° | 64° | 94% | 1021 mb | 304 ft | |||
| 03-मई | 18:00 | n/a | Calm | Missing | 19° | 66° | 18° | 64° | 94% | 1020 mb | 333 ft | ||||
| 03-मई | 17:00 | n/a | 330° | 5 kt | Missing | 20° | 68° | 18° | 64° | 88% | 1020 mb | 453 ft | |||
| 03-मई | 16:00 | n/a | 250° | 3 kt | Missing | 22° | 71° | 18° | 64° | 78% | 1020 mb | 693 ft | |||
| 03-मई | 15:00 | n/a | 290° | 6 kt | Missing | 21° | 69° | 18° | 64° | 83% | 1020 mb | 573 ft | |||
| 03-मई | 14:00 | n/a | 360° | 6 kt | Missing | 20° | 68° | 18° | 64° | 88% | 1021 mb | 424 ft | |||
| 03-मई | 13:00 | n/a | 30° | 5 kt | Missing | 23° | 73° | 17° | 62° | 69% | 1021 mb | 784 ft | |||
| 03-मई | 12:00 | n/a | 360° | 3 kt | Missing | 21° | 69° | 17° | 62° | 78% | 1022 mb | 514 ft | |||
| 03-मई | 11:00 | n/a | 340° | 3 kt | Missing | 21° | 69° | 18° | 64° | 83% | 1023 mb | 485 ft |
लॉगिन
| Your browser is unsupported. अपना ब्राऊजर अपग्रेड करें |
